createdAt,value
2017-10-14T00:01:11.766Z,67.40
2017-10-14T00:03:39.994Z,67.60
2017-10-14T00:06:07.525Z,67.60
2017-10-14T00:08:34.994Z,67.60
2017-10-14T00:11:03.393Z,67.60
2017-10-14T00:13:30.881Z,67.60
2017-10-14T00:15:59.124Z,67.80
2017-10-14T00:18:27.341Z,67.80
2017-10-14T00:20:54.822Z,67.70
2017-10-14T00:23:22.287Z,67.80
2017-10-14T00:25:49.772Z,67.80
2017-10-14T00:28:18.066Z,68.00
2017-10-14T00:30:46.329Z,68.10
2017-10-14T00:33:13.814Z,68.10
2017-10-14T00:35:41.271Z,68.10
2017-10-14T00:38:08.754Z,68.20
2017-10-14T00:40:37.018Z,68.30
2017-10-14T00:43:05.260Z,68.40
2017-10-14T00:45:32.740Z,68.20
2017-10-14T00:48:00.233Z,68.40
2017-10-14T00:50:27.699Z,68.60
2017-10-14T00:52:55.168Z,68.50
2017-10-14T00:55:22.654Z,68.70
2017-10-14T00:57:50.164Z,68.80
2017-10-14T01:00:17.706Z,68.80
2017-10-14T01:02:45.929Z,69.00
2017-10-14T01:05:13.413Z,69.00
2017-10-14T01:07:40.871Z,69.10
2017-10-14T01:10:08.316Z,69.20
2017-10-14T01:12:35.789Z,69.30
2017-10-14T01:15:03.282Z,69.30
2017-10-14T01:17:31.514Z,69.50
2017-10-14T01:19:58.991Z,69.50
2017-10-14T01:22:26.455Z,69.50
2017-10-14T01:24:53.938Z,69.40
2017-10-14T01:27:21.410Z,69.60
2017-10-14T01:29:48.889Z,69.60
2017-10-14T01:32:16.340Z,69.80
2017-10-14T01:34:43.802Z,69.80
2017-10-14T01:37:11.297Z,70.00
2017-10-14T01:39:38.757Z,69.90
2017-10-14T01:42:06.246Z,69.90
2017-10-14T01:44:35.409Z,70.00
2017-10-14T01:47:02.882Z,70.00
2017-10-14T01:49:31.184Z,70.20
2017-10-14T01:51:58.641Z,70.20
2017-10-14T01:54:26.166Z,70.20
2017-10-14T01:56:53.628Z,70.30
2017-10-14T01:59:21.088Z,70.40
2017-10-14T02:01:48.572Z,70.40
2017-10-14T02:04:16.022Z,70.40
2017-10-14T02:06:43.507Z,70.50
2017-10-14T02:09:10.984Z,70.60
2017-10-14T02:11:38.490Z,70.70
2017-10-14T02:14:06.933Z,70.70
2017-10-14T02:16:34.389Z,70.70
2017-10-14T02:19:01.869Z,70.80
2017-10-14T02:21:29.334Z,71.00
2017-10-14T02:23:56.814Z,71.00
2017-10-14T02:26:25.404Z,71.00
2017-10-14T02:28:53.150Z,71.00
2017-10-14T02:31:21.660Z,71.00
2017-10-14T02:33:49.881Z,71.00
2017-10-14T02:36:17.357Z,71.10
2017-10-14T02:38:44.834Z,71.10
2017-10-14T02:41:13.107Z,71.30
2017-10-14T02:43:41.533Z,71.40
2017-10-14T02:46:09.018Z,71.30
2017-10-14T02:48:37.716Z,71.30
2017-10-14T02:51:05.278Z,71.30
2017-10-14T02:53:32.804Z,71.30
2017-10-14T02:56:00.336Z,72.20
2017-10-14T02:58:27.803Z,71.40
2017-10-14T03:00:55.289Z,71.50
2017-10-14T03:03:22.921Z,71.60
2017-10-14T03:05:50.396Z,71.60
2017-10-14T03:08:17.994Z,71.70
2017-10-14T03:10:45.475Z,71.70
2017-10-14T03:13:13.705Z,71.70
2017-10-14T03:15:41.216Z,71.70
2017-10-14T03:18:08.693Z,71.80
2017-10-14T03:20:36.198Z,71.70
2017-10-14T03:23:03.680Z,71.80
2017-10-14T03:25:31.171Z,71.80
2017-10-14T03:27:58.689Z,72.20
2017-10-14T03:30:26.918Z,71.80
2017-10-14T03:32:54.454Z,71.70
2017-10-14T03:35:22.033Z,71.80
2017-10-14T03:37:49.489Z,71.80
2017-10-14T03:40:17.005Z,71.90
2017-10-14T03:42:45.225Z,72.00
2017-10-14T03:45:12.691Z,72.00
2017-10-14T03:47:40.169Z,72.00
2017-10-14T03:50:09.118Z,72.00
2017-10-14T03:52:36.617Z,72.00
2017-10-14T03:55:04.077Z,72.10
2017-10-14T03:57:31.549Z,72.00
2017-10-14T03:59:59.020Z,72.00
2017-10-14T04:02:26.485Z,72.10
2017-10-14T04:04:53.998Z,72.10
2017-10-14T04:07:22.233Z,72.10
2017-10-14T04:09:49.721Z,72.10
2017-10-14T04:12:17.177Z,72.10
2017-10-14T04:14:44.654Z,72.10
2017-10-14T04:17:12.119Z,72.20
2017-10-14T04:19:39.633Z,72.20
2017-10-14T04:22:07.105Z,72.30
2017-10-14T04:24:34.589Z,72.20
2017-10-14T04:27:02.045Z,72.20
2017-10-14T04:29:29.519Z,72.30
2017-10-14T04:31:56.995Z,72.30
2017-10-14T04:34:24.444Z,72.20
2017-10-14T04:36:51.930Z,72.30
2017-10-14T04:39:19.377Z,72.30
2017-10-14T04:41:46.833Z,72.20
2017-10-14T04:44:14.310Z,72.20
2017-10-14T04:46:41.773Z,72.30
2017-10-14T04:49:09.606Z,72.30
2017-10-14T04:51:37.090Z,72.30
2017-10-14T04:54:04.588Z,72.20
2017-10-14T04:56:32.083Z,72.30
2017-10-14T04:58:59.547Z,72.30
2017-10-14T05:01:27.015Z,72.10
2017-10-14T05:03:55.252Z,72.10
2017-10-14T05:06:22.725Z,72.10
2017-10-14T05:08:50.178Z,72.10
2017-10-14T05:11:17.668Z,72.10
2017-10-14T05:13:45.894Z,72.30
2017-10-14T05:16:13.358Z,72.20
2017-10-14T05:18:40.895Z,72.20
2017-10-14T05:21:08.377Z,72.20
2017-10-14T05:23:35.833Z,72.20
2017-10-14T05:26:03.298Z,72.20
2017-10-14T05:28:30.785Z,72.20
2017-10-14T05:30:58.507Z,72.20
2017-10-14T05:33:25.984Z,72.30
2017-10-14T05:35:53.468Z,72.20
2017-10-14T05:38:21.724Z,72.20
2017-10-14T05:40:49.179Z,73.00
2017-10-14T05:43:16.659Z,72.20
2017-10-14T05:45:44.937Z,72.30
2017-10-14T05:48:13.188Z,72.30
2017-10-14T05:50:41.669Z,72.30
2017-10-14T05:53:09.145Z,72.30
2017-10-14T05:55:37.380Z,72.30
2017-10-14T05:58:04.861Z,72.30
2017-10-14T06:00:32.318Z,72.30
2017-10-14T06:02:59.820Z,72.20
2017-10-14T06:05:27.342Z,72.20
2017-10-14T06:07:54.818Z,72.20
2017-10-14T06:10:22.306Z,72.20
2017-10-14T06:12:50.582Z,72.20
2017-10-14T06:15:18.045Z,72.20
2017-10-14T06:17:45.530Z,72.10
2017-10-14T06:20:13.003Z,72.20
2017-10-14T06:22:41.414Z,72.20
2017-10-14T06:25:08.902Z,72.20
2017-10-14T06:27:36.393Z,72.10
2017-10-14T06:30:03.871Z,72.10
2017-10-14T06:32:31.351Z,72.10
2017-10-14T06:34:59.592Z,72.10
2017-10-14T06:37:27.074Z,72.10
2017-10-14T06:39:55.381Z,72.60
2017-10-14T06:42:22.858Z,72.00
2017-10-14T06:44:50.333Z,72.00
2017-10-14T06:47:17.829Z,71.90
2017-10-14T06:49:45.309Z,71.90
2017-10-14T06:52:12.821Z,71.80
2017-10-14T06:54:40.279Z,71.80
2017-10-14T06:57:07.750Z,71.80
2017-10-14T06:59:35.244Z,71.80
2017-10-14T07:02:03.483Z,71.60
2017-10-14T07:04:30.925Z,71.60
2017-10-14T07:06:58.422Z,71.70
2017-10-14T07:09:26.710Z,71.50
2017-10-14T07:11:54.960Z,71.50
2017-10-14T07:14:22.416Z,71.50
2017-10-14T07:16:49.893Z,71.40
2017-10-14T07:19:17.379Z,71.40
2017-10-14T07:21:44.862Z,71.30
2017-10-14T07:24:12.390Z,71.30
2017-10-14T07:26:39.873Z,71.30
2017-10-14T07:29:07.366Z,71.20
2017-10-14T07:31:34.852Z,71.20
2017-10-14T07:34:02.352Z,71.10
2017-10-14T07:36:29.842Z,71.20
2017-10-14T07:38:57.359Z,71.00
2017-10-14T07:41:24.841Z,71.00
2017-10-14T07:43:52.304Z,70.90
2017-10-14T07:46:19.806Z,71.00
2017-10-14T07:48:48.093Z,70.80
2017-10-14T07:51:15.549Z,70.70
2017-10-14T07:53:43.053Z,70.70
2017-10-14T07:56:10.553Z,70.60
2017-10-14T07:58:38.781Z,70.40
2017-10-14T08:01:06.262Z,70.30
2017-10-14T08:03:33.738Z,70.20
2017-10-14T08:06:01.968Z,70.30
2017-10-14T08:08:29.461Z,70.30
2017-10-14T08:10:56.966Z,70.20
2017-10-14T08:13:24.466Z,70.10
2017-10-14T08:15:51.933Z,70.00
2017-10-14T08:18:19.434Z,69.70
2017-10-14T08:20:46.889Z,69.90
2017-10-14T08:23:14.382Z,69.80
2017-10-14T08:25:41.829Z,69.70
2017-10-14T08:28:09.313Z,69.70
2017-10-14T08:30:36.827Z,69.60
2017-10-14T08:33:04.544Z,69.50
2017-10-14T08:35:32.024Z,69.60
2017-10-14T08:37:59.558Z,70.40
2017-10-14T08:40:27.004Z,69.50
2017-10-14T08:42:54.481Z,69.30
2017-10-14T08:45:21.977Z,69.20
2017-10-14T08:47:49.445Z,69.20
2017-10-14T08:50:16.898Z,69.20
2017-10-14T08:52:44.370Z,69.30
2017-10-14T08:55:11.841Z,69.10
2017-10-14T08:57:39.318Z,69.00
2017-10-14T09:00:06.782Z,69.00
2017-10-14T09:02:34.258Z,68.90
2017-10-14T09:05:01.713Z,69.00
2017-10-14T09:07:29.205Z,68.90
2017-10-14T09:09:56.848Z,68.90
2017-10-14T09:12:24.360Z,69.00
2017-10-14T09:14:52.602Z,68.90
2017-10-14T09:17:20.058Z,68.90
2017-10-14T09:19:47.553Z,68.80
2017-10-14T09:22:15.011Z,68.80
2017-10-14T09:24:42.467Z,68.70
2017-10-14T09:27:09.950Z,68.70
2017-10-14T09:29:37.442Z,68.70
2017-10-14T09:32:05.670Z,68.60
2017-10-14T09:34:33.125Z,68.60
2017-10-14T09:37:00.614Z,68.40
2017-10-14T09:39:28.094Z,68.30
2017-10-14T09:41:56.330Z,68.30
2017-10-14T09:44:23.814Z,68.10
2017-10-14T09:46:52.034Z,67.90
2017-10-14T09:49:19.533Z,67.90
2017-10-14T09:51:47.040Z,67.90
2017-10-14T09:54:14.773Z,67.70
2017-10-14T09:56:42.263Z,67.60
2017-10-14T09:59:09.810Z,67.60
2017-10-14T10:01:37.269Z,67.40
2017-10-14T10:04:04.745Z,67.20
2017-10-14T10:06:32.209Z,67.30
2017-10-14T10:08:59.690Z,67.10
2017-10-14T10:11:27.145Z,67.00
2017-10-14T10:13:54.639Z,66.90
2017-10-14T10:16:22.154Z,66.80
2017-10-14T10:18:49.614Z,66.80
2017-10-14T10:21:17.106Z,66.70
2017-10-14T10:23:45.314Z,66.40
2017-10-14T10:26:12.798Z,66.30
2017-10-14T10:28:40.324Z,66.10
2017-10-14T10:31:08.549Z,66.00
2017-10-14T10:33:36.033Z,66.00
2017-10-14T10:36:03.510Z,65.90
2017-10-14T10:38:31.769Z,65.90
2017-10-14T10:40:59.226Z,65.90
2017-10-14T10:43:26.681Z,65.70
2017-10-14T10:45:54.170Z,65.70
2017-10-14T10:48:21.624Z,65.60
2017-10-14T10:50:49.866Z,65.30
2017-10-14T10:53:17.367Z,65.30
2017-10-14T10:55:45.754Z,65.00
2017-10-14T10:58:13.205Z,64.70
2017-10-14T11:00:40.695Z,64.70
2017-10-14T11:03:08.154Z,64.50
2017-10-14T11:05:35.634Z,64.20
2017-10-14T11:08:03.137Z,63.50
2017-10-14T11:10:30.629Z,63.50
2017-10-14T11:12:58.101Z,63.70
2017-10-14T11:15:25.589Z,63.60
2017-10-14T11:17:53.046Z,63.40
2017-10-14T11:20:20.518Z,63.30
2017-10-14T11:22:47.985Z,63.10
2017-10-14T11:25:16.271Z,63.10
2017-10-14T11:27:43.723Z,62.60
2017-10-14T11:30:11.201Z,61.90
2017-10-14T11:32:38.670Z,61.70
2017-10-14T11:35:06.155Z,61.40
2017-10-14T11:37:33.641Z,61.20
2017-10-14T11:40:01.857Z,61.00
2017-10-14T11:42:29.341Z,60.90
2017-10-14T11:44:56.948Z,61.00
2017-10-14T11:47:24.509Z,60.60
2017-10-14T11:49:51.998Z,60.30
2017-10-14T11:52:19.509Z,60.40
2017-10-14T11:54:46.993Z,60.40
2017-10-14T11:57:14.466Z,60.50
2017-10-14T11:59:41.949Z,60.00
2017-10-14T12:02:09.413Z,59.80
2017-10-14T12:04:36.990Z,59.60
2017-10-14T12:07:04.480Z,59.40
2017-10-14T12:09:31.937Z,59.20
2017-10-14T12:11:59.401Z,58.80
2017-10-14T12:14:26.898Z,59.00
2017-10-14T12:16:54.349Z,59.00
2017-10-14T12:19:21.840Z,59.10
2017-10-14T12:21:49.314Z,59.10
2017-10-14T12:24:17.130Z,59.00
2017-10-14T12:26:44.599Z,58.70
2017-10-14T12:29:12.094Z,58.70
2017-10-14T12:31:40.312Z,58.20
2017-10-14T12:34:07.768Z,58.10
2017-10-14T12:36:35.266Z,58.00
2017-10-14T12:39:02.718Z,58.00
2017-10-14T12:41:30.174Z,57.90
2017-10-14T12:43:57.652Z,57.80
2017-10-14T12:46:25.917Z,57.30
2017-10-14T12:48:53.406Z,57.30
2017-10-14T12:51:21.625Z,57.50
2017-10-14T12:53:49.110Z,57.40
2017-10-14T12:56:16.564Z,57.50
2017-10-14T12:58:44.044Z,57.30
2017-10-14T13:01:12.325Z,57.10
2017-10-14T13:03:40.558Z,57.10
2017-10-14T13:06:08.797Z,56.80
2017-10-14T13:08:36.304Z,56.80
2017-10-14T13:11:03.765Z,56.90
2017-10-14T13:13:31.223Z,56.90
2017-10-14T13:15:58.689Z,57.10
2017-10-14T13:18:26.163Z,56.40
2017-10-14T13:20:54.402Z,55.70
2017-10-14T13:23:21.931Z,55.60
2017-10-14T13:25:49.613Z,55.50
2017-10-14T13:28:17.404Z,54.40
2017-10-14T13:30:44.908Z,53.50
2017-10-14T13:33:12.608Z,51.30
2017-10-14T13:35:41.184Z,46.20
2017-10-14T13:38:08.697Z,46.00
2017-10-14T13:40:37.100Z,42.90
2017-10-14T13:43:04.569Z,42.70
2017-10-14T13:45:32.152Z,41.10
2017-10-14T13:48:00.870Z,35.80
2017-10-14T13:50:28.400Z,35.70
2017-10-14T13:52:56.022Z,34.90
2017-10-14T13:55:23.728Z,33.70
2017-10-14T13:57:51.518Z,32.50
2017-10-14T14:00:19.249Z,31.20
2017-10-14T14:02:47.081Z,30.40
2017-10-14T14:05:14.555Z,30.70
2017-10-14T14:07:42.228Z,30.00
2017-10-14T14:10:09.859Z,29.90
2017-10-14T14:12:37.424Z,29.70
2017-10-14T14:15:05.642Z,29.20
2017-10-14T14:17:33.154Z,29.10
2017-10-14T14:20:00.701Z,29.50
2017-10-14T14:22:29.005Z,28.90
2017-10-14T14:24:56.645Z,28.80
2017-10-14T14:27:24.860Z,28.80
2017-10-14T14:29:52.362Z,28.70
2017-10-14T14:32:19.819Z,29.30
2017-10-14T14:34:47.269Z,29.40
2017-10-14T14:37:14.748Z,29.30
2017-10-14T14:39:42.217Z,29.30
2017-10-14T14:42:11.038Z,29.70
2017-10-14T14:44:38.481Z,29.60
2017-10-14T14:47:05.985Z,29.60
2017-10-14T14:49:33.749Z,29.30
2017-10-14T14:52:01.202Z,29.40
2017-10-14T14:54:28.714Z,29.60
2017-10-14T14:56:56.187Z,30.40
2017-10-14T14:59:23.648Z,31.50
2017-10-14T15:01:51.125Z,32.20
2017-10-14T15:04:19.186Z,32.80
2017-10-14T15:06:46.803Z,32.90
2017-10-14T15:09:15.320Z,34.10
2017-10-14T15:11:43.038Z,34.00
2017-10-14T15:14:10.742Z,34.90
2017-10-14T15:16:38.222Z,35.40
2017-10-14T15:19:05.911Z,35.40
2017-10-14T15:21:33.651Z,35.50
2017-10-14T15:24:01.130Z,36.20
2017-10-14T15:26:28.617Z,37.20
2017-10-14T15:28:56.073Z,38.30
2017-10-14T15:31:24.298Z,40.80
2017-10-14T15:33:51.803Z,40.50
2017-10-14T15:36:20.593Z,41.50
2017-10-14T15:38:48.426Z,42.40
2017-10-14T15:41:15.960Z,42.60
2017-10-14T15:43:43.718Z,42.70
2017-10-14T15:46:11.200Z,43.30
2017-10-14T15:48:38.944Z,44.20
2017-10-14T15:51:06.641Z,44.90
2017-10-14T15:53:34.120Z,45.40
2017-10-14T15:56:01.873Z,46.10
2017-10-14T15:58:29.624Z,46.50
2017-10-14T16:00:57.110Z,47.20
2017-10-14T16:03:24.670Z,47.60
2017-10-14T16:05:52.641Z,47.90
2017-10-14T16:08:21.824Z,48.70
2017-10-14T16:10:49.406Z,48.70
2017-10-14T16:13:16.977Z,49.10
2017-10-14T16:15:45.213Z,49.90
2017-10-14T16:18:12.726Z,49.90
2017-10-14T16:20:40.178Z,50.10
2017-10-14T16:23:07.702Z,50.40
2017-10-14T16:25:35.184Z,50.70
2017-10-14T16:28:03.886Z,52.10
2017-10-14T16:30:31.463Z,51.40
2017-10-14T16:32:59.093Z,51.70
2017-10-14T16:35:26.649Z,51.90
2017-10-14T16:37:54.141Z,52.10
2017-10-14T16:40:22.035Z,52.40
2017-10-14T16:42:49.530Z,53.00
2017-10-14T16:45:17.097Z,52.80
2017-10-14T16:47:44.549Z,53.00
2017-10-14T16:50:12.024Z,53.20
2017-10-14T16:52:40.293Z,53.60
2017-10-14T16:55:07.744Z,53.60
2017-10-14T16:57:35.387Z,53.80
2017-10-14T17:00:03.427Z,54.00
2017-10-14T17:02:31.285Z,54.20
2017-10-14T17:04:58.801Z,54.40
2017-10-14T17:07:26.587Z,54.60
2017-10-14T17:09:54.122Z,54.60
2017-10-14T17:12:22.333Z,54.80
2017-10-14T17:14:49.959Z,55.00
2017-10-14T17:17:18.414Z,55.30
2017-10-14T17:19:46.141Z,55.30
2017-10-14T17:22:13.745Z,55.40
2017-10-14T17:24:41.558Z,55.60
2017-10-14T17:27:09.297Z,55.70
2017-10-14T17:29:37.250Z,55.80
2017-10-14T17:32:04.734Z,56.00
2017-10-14T17:34:32.969Z,56.30
2017-10-14T17:37:00.422Z,56.20
2017-10-14T17:39:27.921Z,56.30
2017-10-14T17:41:55.437Z,56.40
2017-10-14T17:44:22.896Z,56.50
2017-10-14T17:46:50.382Z,56.60
2017-10-14T17:49:17.842Z,56.70
2017-10-14T17:51:45.326Z,56.90
2017-10-14T17:54:12.810Z,56.90
2017-10-14T17:56:40.266Z,57.00
2017-10-14T17:59:07.825Z,57.10
2017-10-14T18:01:35.286Z,57.30
2017-10-14T18:04:02.814Z,57.40
2017-10-14T18:06:30.294Z,57.50
2017-10-14T18:08:58.566Z,57.60
2017-10-14T18:11:26.049Z,57.60
2017-10-14T18:13:53.508Z,57.80
2017-10-14T18:16:20.994Z,57.90
2017-10-14T18:18:49.739Z,58.10
2017-10-14T18:21:17.244Z,58.10
2017-10-14T18:23:44.721Z,58.20
2017-10-14T18:26:12.208Z,58.10
2017-10-14T18:28:40.462Z,58.30
2017-10-14T18:31:07.913Z,58.30
2017-10-14T18:33:35.400Z,58.50
2017-10-14T18:36:02.871Z,58.50
2017-10-14T18:38:30.357Z,58.60
2017-10-14T18:40:57.815Z,58.60
2017-10-14T18:43:25.272Z,58.70
2017-10-14T18:45:52.765Z,58.80
2017-10-14T18:48:20.247Z,58.80
2017-10-14T18:50:48.477Z,58.80
2017-10-14T18:53:15.958Z,58.80
2017-10-14T18:55:43.425Z,58.90
2017-10-14T18:58:10.919Z,58.90
2017-10-14T19:00:38.410Z,59.10
2017-10-14T19:03:05.865Z,59.20
2017-10-14T19:05:33.342Z,59.20
2017-10-14T19:08:00.821Z,59.30
2017-10-14T19:10:28.348Z,59.30
2017-10-14T19:12:56.289Z,59.40
2017-10-14T19:15:24.432Z,59.40
2017-10-14T19:17:52.681Z,59.60
2017-10-14T19:20:20.132Z,59.60
2017-10-14T19:22:47.617Z,59.70
2017-10-14T19:25:15.098Z,59.70
2017-10-14T19:27:42.553Z,59.70
2017-10-14T19:30:10.037Z,59.70
2017-10-14T19:32:37.542Z,59.80
2017-10-14T19:35:05.024Z,59.90
2017-10-14T19:37:33.253Z,60.00
2017-10-14T19:40:00.734Z,59.90
2017-10-14T19:42:28.224Z,59.90
2017-10-14T19:44:56.448Z,60.10
2017-10-14T19:47:23.924Z,60.10
2017-10-14T19:49:51.401Z,60.20
2017-10-14T19:52:19.645Z,60.50
2017-10-14T19:54:47.114Z,60.50
2017-10-14T19:57:14.574Z,60.50
2017-10-14T19:59:42.049Z,60.50
2017-10-14T20:02:10.277Z,60.70
2017-10-14T20:04:37.769Z,60.80
2017-10-14T20:07:05.245Z,60.90
2017-10-14T20:09:33.503Z,61.00
2017-10-14T20:12:00.959Z,61.00
2017-10-14T20:14:28.424Z,61.00
2017-10-14T20:16:55.919Z,61.10
2017-10-14T20:19:23.396Z,61.10
2017-10-14T20:21:50.854Z,62.00
2017-10-14T20:24:18.360Z,61.10
2017-10-14T20:26:45.851Z,61.30
2017-10-14T20:29:14.098Z,61.30
2017-10-14T20:31:41.568Z,61.30
2017-10-14T20:34:09.794Z,61.40
2017-10-14T20:36:37.282Z,61.40
2017-10-14T20:39:04.745Z,61.50
2017-10-14T20:41:32.210Z,61.60
2017-10-14T20:43:59.694Z,61.60
2017-10-14T20:46:27.193Z,61.70
2017-10-14T20:48:54.706Z,61.80
2017-10-14T20:51:22.926Z,61.80
2017-10-14T20:53:50.533Z,61.80
2017-10-14T20:56:18.045Z,61.80
2017-10-14T20:58:45.533Z,61.80
2017-10-14T21:01:12.998Z,62.10
2017-10-14T21:03:40.482Z,62.10
2017-10-14T21:06:07.938Z,62.10
2017-10-14T21:08:35.423Z,63.10
2017-10-14T21:11:02.913Z,62.50
2017-10-14T21:13:30.415Z,62.40
2017-10-14T21:15:57.909Z,62.60
2017-10-14T21:18:25.444Z,62.70
2017-10-14T21:20:52.930Z,62.80
2017-10-14T21:23:20.391Z,62.90
2017-10-14T21:25:47.878Z,62.80
2017-10-14T21:28:15.384Z,62.90
2017-10-14T21:30:42.837Z,63.00
2017-10-14T21:33:10.317Z,63.00
2017-10-14T21:35:37.850Z,63.10
2017-10-14T21:38:05.343Z,63.10
2017-10-14T21:40:32.809Z,63.20
2017-10-14T21:43:00.337Z,63.30
2017-10-14T21:45:27.769Z,63.40
2017-10-14T21:47:55.229Z,63.30
2017-10-14T21:50:22.709Z,63.40
2017-10-14T21:52:50.219Z,63.50
2017-10-14T21:55:17.674Z,63.60
2017-10-14T21:57:45.141Z,63.60
2017-10-14T22:00:12.638Z,63.60
2017-10-14T22:02:40.103Z,63.60
2017-10-14T22:05:07.562Z,63.60
2017-10-14T22:07:35.054Z,63.70
2017-10-14T22:10:02.540Z,63.70
2017-10-14T22:12:30.003Z,63.60
2017-10-14T22:14:57.689Z,63.70
2017-10-14T22:17:25.189Z,64.10
2017-10-14T22:19:52.659Z,63.80
2017-10-14T22:22:20.138Z,63.90
2017-10-14T22:24:48.386Z,63.90
2017-10-14T22:27:15.873Z,63.90
2017-10-14T22:29:44.120Z,64.00
2017-10-14T22:32:11.611Z,63.90
2017-10-14T22:34:39.854Z,64.10
2017-10-14T22:37:07.359Z,64.10
2017-10-14T22:39:35.626Z,64.20
2017-10-14T22:42:03.892Z,64.20
2017-10-14T22:44:31.381Z,64.00
2017-10-14T22:46:58.858Z,64.10
2017-10-14T22:49:26.347Z,64.20
2017-10-14T22:51:53.803Z,64.40
2017-10-14T22:54:21.298Z,64.30
2017-10-14T22:56:48.788Z,64.40
2017-10-14T22:59:16.262Z,64.50
2017-10-14T23:01:43.729Z,64.50
2017-10-14T23:04:11.224Z,64.50
2017-10-14T23:06:38.720Z,64.50
2017-10-14T23:09:06.202Z,64.40
2017-10-14T23:11:33.693Z,64.40
2017-10-14T23:14:01.159Z,64.50
2017-10-14T23:16:28.996Z,64.50
2017-10-14T23:18:56.465Z,64.50
2017-10-14T23:21:23.924Z,64.50
2017-10-14T23:23:51.387Z,64.50
2017-10-14T23:26:18.901Z,64.60
2017-10-14T23:28:46.362Z,64.70
2017-10-14T23:31:13.825Z,64.80
2017-10-14T23:33:41.310Z,64.90
2017-10-14T23:36:08.888Z,65.10
2017-10-14T23:38:36.510Z,65.30
2017-10-14T23:41:03.979Z,65.40
2017-10-14T23:43:31.439Z,65.20
2017-10-14T23:46:00.470Z,65.40
2017-10-14T23:48:27.959Z,65.40
2017-10-14T23:50:55.427Z,65.40
2017-10-14T23:53:22.910Z,65.40
2017-10-14T23:55:50.463Z,65.50
2017-10-14T23:58:17.934Z,65.40
